Airfield :
LOGIN :

Register | Disclaimer

   EN    FR    IT 

 










Legend :    VFR   Marginal VFR   IFR   Intensive IFR   Very Intensive IFR
Visi :
Ceiling :
>= 8 km
>= 3000ft
5 to 8 km
1000 to 3000 ft
1500m to 5 km
500 to 1000 ft
800 to 1500m
200 to 500 ft
< 800m
< 200 ft
Symbols :   Thunderstorms  Fog  Heavy snow  Heavy precipitations  Wind > 20 kt
SIGMETs :     Misc.  Thunderstorms  Icing  Turbulence  Mountain Waves  Volcanic Ashes







- Airport Elevation : 468 ft
- IATA code : GRO


LEGE - Girona Costa Brava

CURRENT METAR :
  • 231430Z 20011KT 170V230 9999 FEW050 28/14 Q1019

EXPIRED METARs :
  • 231400Z 21011KT 170V250 9999 FEW050 28/14 Q1019
  • 231330Z 18010KT 140V220 9999 FEW050TCU SCT065 28/13 Q1019
  • 231300Z 19010KT 160V220 9999 FEW050TCU 28/14 Q1019
  • 231230Z 19011KT 160V230 9999 FEW050 28/14 Q1019
  • 231200Z 05004KT 9999 FEW040 29/13 Q1019

TAF TAF LEGE
Valid from the 23 at 12:00 until the 24 at 12:00 UTC


231100Z 2312/2412 VRB03KT 9999 FEW020 SCT050 TX30/2313Z TN15/2406Z
BECMG 2312/2314 18010KT
BECMG 2318/2320 VRB03KT
No reported NOTAMs for that airfield.



MET'MAP, your aeronautical weather chart ! - Copyright ORBIFLY December 2007 - Disclaimer

ORBIFLY MET'MAP TEAM :

Programming & Development : Alexandra Zaïnal
Concept & Development : Baudouin d'Aumeries
Co-Development & Prog : Marc-Olivier Méhu
Technical & hardware support : Manuel Goepfert

Contact : metmap@orbifly.com




SOURCES & CREDITS :

   NOAA